createdAt,value
2022-10-11T00:12:45.324Z,0.35
2022-10-11T00:27:50.262Z,0.45
2022-10-11T00:43:00.242Z,0.75
2022-10-11T00:58:08.617Z,1.07
2022-10-11T01:13:23.253Z,0.10
2022-10-11T01:28:47.433Z,0.23
2022-10-11T01:43:55.407Z,0.55
2022-10-11T01:59:12.146Z,1.00
2022-10-11T02:14:26.246Z,1.00
2022-10-11T02:29:35.267Z,0.10
2022-10-11T02:44:43.323Z,0.40
2022-10-11T02:59:48.273Z,1.25
2022-10-11T03:14:53.196Z,0.35
2022-10-11T03:29:58.343Z,0.20
2022-10-11T03:45:05.135Z,0.30
2022-10-11T04:00:10.594Z,0.28
2022-10-11T04:15:16.474Z,1.05
2022-10-11T04:30:21.858Z,1.10
2022-10-11T04:45:26.838Z,1.47
2022-10-11T05:00:32.131Z,0.65
2022-10-11T05:15:37.278Z,0.65
2022-10-11T05:30:42.280Z,0.75
2022-10-11T05:45:47.463Z,0.10
2022-10-11T06:00:52.581Z,0.10
2022-10-11T06:15:57.476Z,1.47
2022-10-11T06:31:04.442Z,0.13
2022-10-11T06:46:09.435Z,1.85
2022-10-11T07:01:18.404Z,0.25
2022-10-11T07:16:24.517Z,1.03
2022-10-11T07:31:29.746Z,0.55
2022-10-11T07:46:35.052Z,0.13
2022-10-11T08:01:40.140Z,0.30
2022-10-11T08:16:45.419Z,0.33
2022-10-11T08:31:50.527Z,1.17
2022-10-11T08:47:04.066Z,0.10
2022-10-11T09:02:24.301Z,0.03
2022-10-11T09:17:44.370Z,0.42
2022-10-11T09:33:10.557Z,0.37
2022-10-11T09:48:21.366Z,0.00
2022-10-11T10:03:35.455Z,0.50
2022-10-11T10:18:47.025Z,0.37
2022-10-11T10:33:55.431Z,1.02
2022-10-11T11:04:41.820Z,0.00
2022-10-11T11:20:01.821Z,0.00
2022-10-11T11:35:34.151Z,0.20
2022-10-11T11:50:43.877Z,1.12
2022-10-11T12:06:12.252Z,0.10
2022-10-11T12:21:28.612Z,0.00
2022-10-11T12:36:36.678Z,0.00
2022-10-11T12:51:47.490Z,1.20
2022-10-11T13:07:01.109Z,0.28
2022-10-11T13:22:08.881Z,0.00
2022-10-11T13:37:22.781Z,0.23
2022-10-11T13:52:27.850Z,0.00
2022-10-11T14:07:40.747Z,0.00
2022-10-11T14:22:46.076Z,0.00
2022-10-11T14:37:51.225Z,0.35
2022-10-11T14:52:57.240Z,0.00
2022-10-11T15:08:03.306Z,0.00
2022-10-11T15:23:10.000Z,0.90
2022-10-11T15:38:21.035Z,0.00
2022-10-11T15:53:31.017Z,0.00
2022-10-11T16:08:36.487Z,0.00
2022-10-11T16:23:41.778Z,1.15
2022-10-11T16:38:46.676Z,0.72
2022-10-11T16:53:52.535Z,0.75
2022-10-11T17:08:57.701Z,1.00
2022-10-11T17:24:03.602Z,4.97
2022-10-11T17:39:11.422Z,0.70
2022-10-11T17:54:16.733Z,2.47
2022-10-11T18:09:22.329Z,1.98
2022-10-11T18:24:27.326Z,5.15
2022-10-11T18:39:32.416Z,3.37
2022-10-11T18:54:37.635Z,6.37
2022-10-11T19:09:43.646Z,4.35
2022-10-11T19:24:48.612Z,3.37
2022-10-11T19:39:53.566Z,11.97
2022-10-11T19:54:59.310Z,5.95
2022-10-11T20:10:04.477Z,5.58
2022-10-11T20:25:10.645Z,4.78
2022-10-11T20:40:15.693Z,9.10
2022-10-11T20:55:20.802Z,7.67
2022-10-11T21:10:25.774Z,6.60
2022-10-11T21:25:34.634Z,8.00
2022-10-11T21:40:42.302Z,11.38
2022-10-11T21:55:47.481Z,5.70
2022-10-11T22:10:59.282Z,4.03
2022-10-11T22:26:09.067Z,4.67
2022-10-11T22:41:14.264Z,6.87
2022-10-11T22:56:19.183Z,3.50
2022-10-11T23:11:24.188Z,6.15
2022-10-11T23:26:29.109Z,6.15
2022-10-11T23:41:34.156Z,3.02
2022-10-11T23:56:40.628Z,3.98
